sensor_id;sensor_type;location;lat;lon;timestamp;pressure;altitude;pressure_sealevel;temperature;humidity
45129;BME280;35512;56.312;101.728;2023-05-18T00:00:36;95820.78;;;2.69;87.09
45129;BME280;35512;56.312;101.728;2023-05-18T00:03:07;95827.34;;;2.72;87.33
45129;BME280;35512;56.312;101.728;2023-05-18T00:05:37;95828.38;;;2.80;87.45
45129;BME280;35512;56.312;101.728;2023-05-18T00:08:06;95825.44;;;2.94;87.38
45129;BME280;35512;56.312;101.728;2023-05-18T00:10:37;95829.16;;;3.01;86.99
45129;BME280;35512;56.312;101.728;2023-05-18T00:13:06;95824.72;;;3.06;86.34
45129;BME280;35512;56.312;101.728;2023-05-18T00:15:36;95829.44;;;3.21;86.28
45129;BME280;35512;56.312;101.728;2023-05-18T00:18:05;95835.56;;;3.34;86.01
45129;BME280;35512;56.312;101.728;2023-05-18T00:20:34;95834.28;;;3.40;85.72
45129;BME280;35512;56.312;101.728;2023-05-18T00:23:04;95835.31;;;3.48;85.18
45129;BME280;35512;56.312;101.728;2023-05-18T00:25:34;95835.97;;;3.57;84.93
45129;BME280;35512;56.312;101.728;2023-05-18T00:28:03;95838.44;;;3.75;84.88
45129;BME280;35512;56.312;101.728;2023-05-18T00:30:32;95828.66;;;3.91;84.46
45129;BME280;35512;56.312;101.728;2023-05-18T00:33:01;95835.91;;;4.03;83.82
45129;BME280;35512;56.312;101.728;2023-05-18T00:35:30;95836.38;;;4.17;83.96
45129;BME280;35512;56.312;101.728;2023-05-18T00:38:00;95836.34;;;4.42;83.67
45129;BME280;35512;56.312;101.728;2023-05-18T00:40:30;95838.56;;;4.40;82.96
45129;BME280;35512;56.312;101.728;2023-05-18T00:42:59;95837.00;;;4.39;82.79
45129;BME280;35512;56.312;101.728;2023-05-18T00:45:28;95842.38;;;4.51;82.73
45129;BME280;35512;56.312;101.728;2023-05-18T00:47:58;95826.88;;;4.57;82.27
45129;BME280;35512;56.312;101.728;2023-05-18T00:50:27;95841.78;;;4.58;82.28
45129;BME280;35512;56.312;101.728;2023-05-18T00:52:56;95832.00;;;4.90;82.13
45129;BME280;35512;56.312;101.728;2023-05-18T00:55:26;95833.22;;;5.21;81.25
45129;BME280;35512;56.312;101.728;2023-05-18T00:57:58;95845.97;;;5.12;80.39
45129;BME280;35512;56.312;101.728;2023-05-18T01:00:31;95837.53;;;5.10;80.43
45129;BME280;35512;56.312;101.728;2023-05-18T01:03:03;95848.13;;;5.06;80.44
45129;BME280;35512;56.312;101.728;2023-05-18T01:05:33;95845.94;;;4.84;80.31
45129;BME280;35512;56.312;101.728;2023-05-18T01:08:02;95848.16;;;4.94;81.20
45129;BME280;35512;56.312;101.728;2023-05-18T01:10:32;95835.44;;;5.32;81.14
45129;BME280;35512;56.312;101.728;2023-05-18T01:13:19;95838.03;;;5.60;81.27
45129;BME280;35512;56.312;101.728;2023-05-18T01:15:53;95835.97;;;5.53;80.01
45129;BME280;35512;56.312;101.728;2023-05-18T01:18:30;95834.28;;;5.33;79.61
45129;BME280;35512;56.312;101.728;2023-05-18T01:26:45;95840.09;;;6.11;79.17
45129;BME280;35512;56.312;101.728;2023-05-18T01:29:19;95840.41;;;6.25;79.21
45129;BME280;35512;56.312;101.728;2023-05-18T01:31:50;95842.03;;;6.46;78.30
45129;BME280;35512;56.312;101.728;2023-05-18T01:34:19;95844.72;;;6.82;77.72
45129;BME280;35512;56.312;101.728;2023-05-18T01:36:48;95847.53;;;7.08;77.19
45129;BME280;35512;56.312;101.728;2023-05-18T01:39:18;95841.84;;;8.72;77.49
45129;BME280;35512;56.312;101.728;2023-05-18T01:42:18;95848.53;;;10.32;75.41
45129;BME280;35512;56.312;101.728;2023-05-18T01:44:55;95839.75;;;9.19;72.94
45129;BME280;35512;56.312;101.728;2023-05-18T01:47:27;95846.00;;;7.93;74.00
45129;BME280;35512;56.312;101.728;2023-05-18T01:50:04;95866.84;;;7.76;77.22
45129;BME280;35512;56.312;101.728;2023-05-18T01:55:22;95858.28;;;8.40;75.06
45129;BME280;35512;56.312;101.728;2023-05-18T01:57:53;95865.72;;;8.47;75.90
45129;BME280;35512;56.312;101.728;2023-05-18T02:00:23;95856.81;;;8.20;75.31
45129;BME280;35512;56.312;101.728;2023-05-18T02:02:52;95859.22;;;7.78;75.96
45129;BME280;35512;56.312;101.728;2023-05-18T02:05:21;95870.00;;;7.59;76.83
45129;BME280;35512;56.312;101.728;2023-05-18T02:07:50;95858.28;;;7.48;77.08
45129;BME280;35512;56.312;101.728;2023-05-18T02:10:20;95875.88;;;7.45;77.19
45129;BME280;35512;56.312;101.728;2023-05-18T02:12:48;95857.16;;;7.09;76.14
45129;BME280;35512;56.312;101.728;2023-05-18T02:15:21;95869.19;;;8.48;78.80
45129;BME280;35512;56.312;101.728;2023-05-18T02:17:50;95865.59;;;10.44;77.33
45129;BME280;35512;56.312;101.728;2023-05-18T02:20:19;95868.91;;;11.74;76.26
45129;BME280;35512;56.312;101.728;2023-05-18T02:22:48;95869.00;;;12.21;75.09
45129;BME280;35512;56.312;101.728;2023-05-18T02:25:20;95873.50;;;11.62;72.19
45129;BME280;35512;56.312;101.728;2023-05-18T02:27:51;95868.19;;;10.33;72.53
45129;BME280;35512;56.312;101.728;2023-05-18T02:30:20;95873.25;;;9.22;73.08
45129;BME280;35512;56.312;101.728;2023-05-18T02:32:51;95877.31;;;8.51;73.88
45129;BME280;35512;56.312;101.728;2023-05-18T02:35:20;95868.63;;;8.15;74.10
45129;BME280;35512;56.312;101.728;2023-05-18T02:37:49;95866.91;;;9.75;77.55
45129;BME280;35512;56.312;101.728;2023-05-18T02:40:17;95868.22;;;12.63;77.60
45129;BME280;35512;56.312;101.728;2023-05-18T02:42:47;95870.75;;;13.28;71.23
45129;BME280;35512;56.312;101.728;2023-05-18T02:45:16;95871.69;;;11.95;68.01
45129;BME280;35512;56.312;101.728;2023-05-18T02:47:45;95871.63;;;10.30;69.06
45129;BME280;35512;56.312;101.728;2023-05-18T02:50:14;95886.50;;;9.34;71.48
45129;BME280;35512;56.312;101.728;2023-05-18T02:52:46;95898.97;;;9.16;72.95
45129;BME280;35512;56.312;101.728;2023-05-18T02:55:17;95885.69;;;10.09;74.58
45129;BME280;35512;56.312;101.728;2023-05-18T02:57:54;95896.47;;;12.26;73.54
45129;BME280;35512;56.312;101.728;2023-05-18T03:00:42;95895.00;;;14.87;73.11
45129;BME280;35512;56.312;101.728;2023-05-18T03:03:12;95892.25;;;15.60;69.82
45129;BME280;35512;56.312;101.728;2023-05-18T03:05:45;95891.91;;;14.82;67.58
45129;BME280;35512;56.312;101.728;2023-05-18T03:08:14;95901.03;;;13.16;66.30
45129;BME280;35512;56.312;101.728;2023-05-18T03:10:44;95907.13;;;11.58;67.32
45129;BME280;35512;56.312;101.728;2023-05-18T03:13:14;95898.78;;;10.48;68.84
45129;BME280;35512;56.312;101.728;2023-05-18T03:15:44;95902.09;;;9.89;69.66
45129;BME280;35512;56.312;101.728;2023-05-18T03:18:13;95923.97;;;9.80;70.96
45129;BME280;35512;56.312;101.728;2023-05-18T03:20:44;95919.09;;;9.56;70.11
45129;BME280;35512;56.312;101.728;2023-05-18T03:23:13;95918.63;;;9.20;70.74
45129;BME280;35512;56.312;101.728;2023-05-18T03:25:42;95922.22;;;8.74;70.35
45129;BME280;35512;56.312;101.728;2023-05-18T03:28:13;95923.59;;;8.60;71.01
45129;BME280;35512;56.312;101.728;2023-05-18T03:30:42;95928.84;;;8.53;71.09
45129;BME280;35512;56.312;101.728;2023-05-18T03:33:11;95924.91;;;8.74;71.73
45129;BME280;35512;56.312;101.728;2023-05-18T03:35:40;95933.97;;;9.16;72.53
45129;BME280;35512;56.312;101.728;2023-05-18T03:38:09;95931.97;;;9.73;72.43
45129;BME280;35512;56.312;101.728;2023-05-18T03:40:46;95938.66;;;10.24;70.76
45129;BME280;35512;56.312;101.728;2023-05-18T03:43:15;95931.84;;;11.56;70.11
45129;BME280;35512;56.312;101.728;2023-05-18T03:45:46;95931.28;;;12.53;68.81
45129;BME280;35512;56.312;101.728;2023-05-18T03:48:15;95936.75;;;13.99;68.18
45129;BME280;35512;56.312;101.728;2023-05-18T03:50:44;95939.97;;;14.92;65.48
45129;BME280;35512;56.312;101.728;2023-05-18T03:53:15;95938.38;;;15.36;64.54
45129;BME280;35512;56.312;101.728;2023-05-18T03:55:50;95929.56;;;15.25;61.00
45129;BME280;35512;56.312;101.728;2023-05-18T03:58:19;95941.41;;;13.95;60.94
45129;BME280;35512;56.312;101.728;2023-05-18T04:00:50;95941.03;;;13.97;63.65
45129;BME280;35512;56.312;101.728;2023-05-18T04:03:21;95943.34;;;13.98;61.30
45129;BME280;35512;56.312;101.728;2023-05-18T04:05:52;95938.22;;;13.12;60.71
45129;BME280;35512;56.312;101.728;2023-05-18T04:08:21;95944.06;;;12.49;62.04
45129;BME280;35512;56.312;101.728;2023-05-18T04:10:52;95936.69;;;12.31;61.51
45129;BME280;35512;56.312;101.728;2023-05-18T04:13:21;95942.06;;;14.21;63.17
45129;BME280;35512;56.312;101.728;2023-05-18T04:15:50;95932.66;;;15.62;60.61
45129;BME280;35512;56.312;101.728;2023-05-18T04:18:19;95946.28;;;15.24;57.87
45129;BME280;35512;56.312;101.728;2023-05-18T04:20:49;95926.16;;;14.16;57.33
45129;BME280;35512;56.312;101.728;2023-05-18T04:23:18;95943.00;;;14.52;58.26
45129;BME280;35512;56.312;101.728;2023-05-18T04:25:47;95947.09;;;14.19;57.22
45129;BME280;35512;56.312;101.728;2023-05-18T04:28:16;95943.59;;;13.33;57.46
45129;BME280;35512;56.312;101.728;2023-05-18T04:30:47;95945.53;;;13.26;57.48
45129;BME280;35512;56.312;101.728;2023-05-18T04:33:16;95938.22;;;12.22;55.62
45129;BME280;35512;56.312;101.728;2023-05-18T04:35:45;95948.09;;;10.93;56.36
45129;BME280;35512;56.312;101.728;2023-05-18T04:38:15;95953.16;;;10.09;56.64
45129;BME280;35512;56.312;101.728;2023-05-18T04:40:45;95956.97;;;9.70;57.00
45129;BME280;35512;56.312;101.728;2023-05-18T04:43:15;95959.88;;;9.88;57.17
45129;BME280;35512;56.312;101.728;2023-05-18T04:45:44;95940.47;;;11.06;56.49
45129;BME280;35512;56.312;101.728;2023-05-18T04:48:14;95965.44;;;11.59;55.26
45129;BME280;35512;56.312;101.728;2023-05-18T04:50:46;95933.63;;;12.76;54.45
45129;BME280;35512;56.312;101.728;2023-05-18T04:53:15;95955.31;;;15.51;53.96
45129;BME280;35512;56.312;101.728;2023-05-18T04:55:45;95955.72;;;18.01;51.46
45129;BME280;35512;56.312;101.728;2023-05-18T04:58:16;95951.28;;;20.37;48.95
45129;BME280;35512;56.312;101.728;2023-05-18T05:00:46;95947.72;;;21.93;46.15
45129;BME280;35512;56.312;101.728;2023-05-18T05:03:15;95942.38;;;23.11;45.02
45129;BME280;35512;56.312;101.728;2023-05-18T05:05:45;95946.00;;;22.40;43.13
45129;BME280;35512;56.312;101.728;2023-05-18T05:08:14;95956.00;;;21.36;44.09
45129;BME280;35512;56.312;101.728;2023-05-18T05:10:44;95949.91;;;20.45;43.66
45129;BME280;35512;56.312;101.728;2023-05-18T05:13:14;95948.19;;;19.83;43.71
45129;BME280;35512;56.312;101.728;2023-05-18T05:15:43;95955.41;;;21.19;43.21
45129;BME280;35512;56.312;101.728;2023-05-18T05:18:13;95942.84;;;22.60;41.28
45129;BME280;35512;56.312;101.728;2023-05-18T05:20:43;95944.78;;;22.41;39.89
45129;BME280;35512;56.312;101.728;2023-05-18T05:23:12;95942.97;;;20.79;39.49
45129;BME280;35512;56.312;101.728;2023-05-18T05:25:43;95942.31;;;18.60;40.47
45129;BME280;35512;56.312;101.728;2023-05-18T05:28:12;95949.38;;;19.53;42.16
45129;BME280;35512;56.312;101.728;2023-05-18T05:30:42;95948.06;;;21.73;38.35
45129;BME280;35512;56.312;101.728;2023-05-18T05:33:11;95939.03;;;22.57;35.79
45129;BME280;35512;56.312;101.728;2023-05-18T05:35:40;95931.97;;;23.43;36.11
45129;BME280;35512;56.312;101.728;2023-05-18T05:38:09;95934.38;;;24.83;35.10
45129;BME280;35512;56.312;101.728;2023-05-18T05:40:39;95939.81;;;26.24;33.51
45129;BME280;35512;56.312;101.728;2023-05-18T05:43:08;95945.09;;;27.49;32.71
45129;BME280;35512;56.312;101.728;2023-05-18T05:45:38;95939.00;;;26.69;32.09
45129;BME280;35512;56.312;101.728;2023-05-18T05:48:09;95944.22;;;23.70;33.33
45129;BME280;35512;56.312;101.728;2023-05-18T05:50:41;95934.22;;;21.06;34.78
45129;BME280;35512;56.312;101.728;2023-05-18T05:53:09;95937.59;;;21.23;36.05
45129;BME280;35512;56.312;101.728;2023-05-18T05:55:39;95944.63;;;20.25;34.30
45129;BME280;35512;56.312;101.728;2023-05-18T05:58:17;95951.84;;;18.35;35.09
45129;BME280;35512;56.312;101.728;2023-05-18T06:00:59;95945.53;;;17.42;36.45
45129;BME280;35512;56.312;101.728;2023-05-18T06:03:29;95952.34;;;19.29;36.09
45129;BME280;35512;56.312;101.728;2023-05-18T06:06:05;95944.47;;;22.17;33.86
45129;BME280;35512;56.312;101.728;2023-05-18T06:08:34;95934.72;;;24.42;32.89
45129;BME280;35512;56.312;101.728;2023-05-18T06:11:03;95941.53;;;26.07;31.26
45129;BME280;35512;56.312;101.728;2023-05-18T06:13:32;95943.44;;;26.01;30.03
45129;BME280;35512;56.312;101.728;2023-05-18T06:16:01;95953.72;;;23.69;30.05
45129;BME280;35512;56.312;101.728;2023-05-18T06:18:31;95944.38;;;21.32;31.06
45129;BME280;35512;56.312;101.728;2023-05-18T06:21:04;95944.72;;;19.66;31.72
45129;BME280;35512;56.312;101.728;2023-05-18T06:23:33;95926.41;;;20.18;31.55
45129;BME280;35512;56.312;101.728;2023-05-18T06:26:03;95935.47;;;22.48;30.51
45129;BME280;35512;56.312;101.728;2023-05-18T06:29:08;95939.03;;;24.34;28.42
45129;BME280;35512;56.312;101.728;2023-05-18T06:31:53;95942.84;;;25.67;27.82
45129;BME280;35512;56.312;101.728;2023-05-18T06:34:34;95945.69;;;26.77;26.95
45129;BME280;35512;56.312;101.728;2023-05-18T06:37:03;95955.97;;;27.32;25.28
45129;BME280;35512;56.312;101.728;2023-05-18T06:39:32;95940.91;;;27.19;25.01
45129;BME280;35512;56.312;101.728;2023-05-18T06:42:02;95938.31;;;26.23;25.17
45129;BME280;35512;56.312;101.728;2023-05-18T06:44:33;95942.75;;;24.21;26.16
45129;BME280;35512;56.312;101.728;2023-05-18T06:47:13;95953.13;;;23.37;27.36
45129;BME280;35512;56.312;101.728;2023-05-18T06:49:42;95949.88;;;24.46;25.89
45129;BME280;35512;56.312;101.728;2023-05-18T06:52:12;95951.38;;;22.93;26.01
45129;BME280;35512;56.312;101.728;2023-05-18T06:54:43;95951.19;;;20.92;26.93
45129;BME280;35512;56.312;101.728;2023-05-18T06:57:12;95969.00;;;19.51;27.63
45129;BME280;35512;56.312;101.728;2023-05-18T06:59:41;95954.84;;;18.41;28.40
45129;BME280;35512;56.312;101.728;2023-05-18T07:02:11;95956.72;;;18.44;28.75
45129;BME280;35512;56.312;101.728;2023-05-18T07:04:41;95962.59;;;18.26;28.25
45129;BME280;35512;56.312;101.728;2023-05-18T07:07:10;95968.59;;;17.17;28.38
45129;BME280;35512;56.312;101.728;2023-05-18T07:09:39;95959.50;;;15.94;28.86
45129;BME280;35512;56.312;101.728;2023-05-18T07:12:13;95953.88;;;14.52;29.31
45129;BME280;35512;56.312;101.728;2023-05-18T07:14:42;95981.41;;;13.80;30.08
45129;BME280;35512;56.312;101.728;2023-05-18T07:17:11;95966.44;;;13.22;30.28
45129;BME280;35512;56.312;101.728;2023-05-18T07:19:40;95962.63;;;12.97;30.27
45129;BME280;35512;56.312;101.728;2023-05-18T07:22:09;95969.22;;;12.64;30.60
45129;BME280;35512;56.312;101.728;2023-05-18T07:24:38;95975.38;;;12.43;30.77
45129;BME280;35512;56.312;101.728;2023-05-18T07:27:07;95965.44;;;14.00;31.36
45129;BME280;35512;56.312;101.728;2023-05-18T07:29:36;95970.75;;;16.78;29.95
45129;BME280;35512;56.312;101.728;2023-05-18T07:32:05;95958.06;;;17.39;28.89
45129;BME280;35512;56.312;101.728;2023-05-18T07:34:34;95971.78;;;18.69;28.31
45129;BME280;35512;56.312;101.728;2023-05-18T07:37:04;95964.00;;;20.05;28.22
45129;BME280;35512;56.312;101.728;2023-05-18T07:39:33;95964.84;;;21.97;27.89
45129;BME280;35512;56.312;101.728;2023-05-18T07:42:02;95968.72;;;23.40;26.77
45129;BME280;35512;56.312;101.728;2023-05-18T07:44:31;95970.41;;;23.47;25.53
45129;BME280;35512;56.312;101.728;2023-05-18T07:47:00;95967.00;;;22.56;25.20
45129;BME280;35512;56.312;101.728;2023-05-18T07:49:29;95972.38;;;20.79;25.87
45129;BME280;35512;56.312;101.728;2023-05-18T07:51:58;95962.06;;;20.57;26.53
45129;BME280;35512;56.312;101.728;2023-05-18T07:54:29;95973.06;;;20.70;25.83
45129;BME280;35512;56.312;101.728;2023-05-18T07:56:58;95973.44;;;19.74;26.22
45129;BME280;35512;56.312;101.728;2023-05-18T07:59:27;95983.06;;;18.71;26.71
45129;BME280;35512;56.312;101.728;2023-05-18T08:01:57;95986.44;;;17.21;27.04
45129;BME280;35512;56.312;101.728;2023-05-18T08:04:28;95990.81;;;16.10;27.78
45129;BME280;35512;56.312;101.728;2023-05-18T08:06:57;95975.13;;;15.17;28.17
45129;BME280;35512;56.312;101.728;2023-05-18T08:09:29;95994.53;;;14.70;28.43
45129;BME280;35512;56.312;101.728;2023-05-18T08:11:58;95988.13;;;14.35;29.05
45129;BME280;35512;56.312;101.728;2023-05-18T08:14:27;95991.13;;;13.81;29.33
45129;BME280;35512;56.312;101.728;2023-05-18T08:16:56;95980.75;;;13.40;29.40
45129;BME280;35512;56.312;101.728;2023-05-18T08:19:25;95995.50;;;13.14;30.07
45129;BME280;35512;56.312;101.728;2023-05-18T08:21:54;96003.66;;;12.96;30.50
45129;BME280;35512;56.312;101.728;2023-05-18T08:24:23;95997.06;;;13.15;30.51
45129;BME280;35512;56.312;101.728;2023-05-18T08:26:52;95999.38;;;13.20;30.16
45129;BME280;35512;56.312;101.728;2023-05-18T08:29:22;96008.69;;;13.08;30.79
45129;BME280;35512;56.312;101.728;2023-05-18T08:31:51;96011.41;;;12.79;30.68
45129;BME280;35512;56.312;101.728;2023-05-18T08:34:20;96007.09;;;12.39;31.24
45129;BME280;35512;56.312;101.728;2023-05-18T08:36:50;96011.19;;;11.93;31.80
45129;BME280;35512;56.312;101.728;2023-05-18T08:39:20;96009.81;;;11.47;32.36
45129;BME280;35512;56.312;101.728;2023-05-18T08:42:01;96018.25;;;11.35;32.68
45129;BME280;35512;56.312;101.728;2023-05-18T08:44:39;96013.69;;;11.46;33.01
45129;BME280;35512;56.312;101.728;2023-05-18T08:47:13;96007.19;;;11.61;32.79
45129;BME280;35512;56.312;101.728;2023-05-18T08:49:44;96012.47;;;11.36;33.28
45129;BME280;35512;56.312;101.728;2023-05-18T08:52:17;95993.59;;;10.88;34.02
45129;BME280;35512;56.312;101.728;2023-05-18T08:54:48;96025.53;;;10.75;34.43
45129;BME280;35512;56.312;101.728;2023-05-18T08:57:21;96033.13;;;10.28;35.07
45129;BME280;35512;56.312;101.728;2023-05-18T08:59:52;96040.00;;;9.88;36.06
45129;BME280;35512;56.312;101.728;2023-05-18T09:02:23;96026.78;;;9.75;36.08
45129;BME280;35512;56.312;101.728;2023-05-18T09:04:54;96037.38;;;9.91;36.24
45129;BME280;35512;56.312;101.728;2023-05-18T09:07:24;96050.69;;;10.11;36.24
45129;BME280;35512;56.312;101.728;2023-05-18T09:09:55;96052.78;;;10.25;36.36
45129;BME280;35512;56.312;101.728;2023-05-18T09:12:27;96033.06;;;10.55;35.86
45129;BME280;35512;56.312;101.728;2023-05-18T09:14:57;96034.38;;;11.20;35.82
45129;BME280;35512;56.312;101.728;2023-05-18T09:17:29;96047.28;;;11.48;35.29
45129;BME280;35512;56.312;101.728;2023-05-18T09:19:58;96046.94;;;11.57;34.91
45129;BME280;35512;56.312;101.728;2023-05-18T09:22:27;96046.88;;;11.46;35.00
45129;BME280;35512;56.312;101.728;2023-05-18T09:24:56;96054.53;;;11.33;35.53
45129;BME280;35512;56.312;101.728;2023-05-18T09:27:26;96049.38;;;11.14;35.56
45129;BME280;35512;56.312;101.728;2023-05-18T09:29:57;96049.75;;;11.12;35.75
45129;BME280;35512;56.312;101.728;2023-05-18T09:32:26;96052.47;;;11.16;35.77
45129;BME280;35512;56.312;101.728;2023-05-18T09:35:03;96053.19;;;11.06;36.15
45129;BME280;35512;56.312;101.728;2023-05-18T09:37:32;96074.38;;;11.04;36.40
45129;BME280;35512;56.312;101.728;2023-05-18T09:40:05;96071.13;;;10.83;36.96
45129;BME280;35512;56.312;101.728;2023-05-18T09:42:42;96070.31;;;10.76;37.11
45129;BME280;35512;56.312;101.728;2023-05-18T09:47:48;96078.84;;;10.44;37.48
45129;BME280;35512;56.312;101.728;2023-05-18T09:50:22;96088.91;;;10.17;37.96
45129;BME280;35512;56.312;101.728;2023-05-18T09:52:52;96090.97;;;9.96;38.02
45129;BME280;35512;56.312;101.728;2023-05-18T09:55:21;96092.38;;;9.83;38.25
45129;BME280;35512;56.312;101.728;2023-05-18T09:57:51;96090.97;;;9.66;38.66
45129;BME280;35512;56.312;101.728;2023-05-18T10:00:20;96096.09;;;9.48;39.08
45129;BME280;35512;56.312;101.728;2023-05-18T10:02:52;96097.16;;;9.40;39.27
45129;BME280;35512;56.312;101.728;2023-05-18T10:05:23;96097.25;;;9.47;40.06
45129;BME280;35512;56.312;101.728;2023-05-18T10:07:56;96101.72;;;9.36;39.95
45129;BME280;35512;56.312;101.728;2023-05-18T10:10:27;96106.44;;;9.19;39.95
45129;BME280;35512;56.312;101.728;2023-05-18T10:13:00;96111.38;;;8.90;40.39
45129;BME280;35512;56.312;101.728;2023-05-18T10:15:30;96113.25;;;8.67;40.57
45129;BME280;35512;56.312;101.728;2023-05-18T10:18:02;96118.22;;;8.45;41.05
45129;BME280;35512;56.312;101.728;2023-05-18T10:20:32;96118.72;;;8.31;40.78
45129;BME280;35512;56.312;101.728;2023-05-18T10:23:04;96125.53;;;8.25;41.61
45129;BME280;35512;56.312;101.728;2023-05-18T10:25:35;96131.66;;;8.06;42.08
45129;BME280;35512;56.312;101.728;2023-05-18T10:28:06;96128.22;;;7.89;42.33
45129;BME280;35512;56.312;101.728;2023-05-18T10:30:36;96140.38;;;7.64;43.43
45129;BME280;35512;56.312;101.728;2023-05-18T10:33:09;96141.34;;;7.39;43.76
45129;BME280;35512;56.312;101.728;2023-05-18T10:35:53;96129.81;;;7.07;43.97
45129;BME280;35512;56.312;101.728;2023-05-18T10:38:27;96147.22;;;6.97;44.60
45129;BME280;35512;56.312;101.728;2023-05-18T10:40:58;96147.09;;;6.77;45.43
45129;BME280;35512;56.312;101.728;2023-05-18T10:43:28;96153.38;;;6.53;45.80
45129;BME280;35512;56.312;101.728;2023-05-18T10:46:00;96160.84;;;6.32;46.07
45129;BME280;35512;56.312;101.728;2023-05-18T10:48:30;96159.91;;;5.99;46.15
45129;BME280;35512;56.312;101.728;2023-05-18T10:50:59;96178.81;;;5.78;47.26
45129;BME280;35512;56.312;101.728;2023-05-18T10:53:33;96167.19;;;5.49;46.59
45129;BME280;35512;56.312;101.728;2023-05-18T10:56:02;96173.69;;;5.36;47.47
45129;BME280;35512;56.312;101.728;2023-05-18T10:58:31;96181.59;;;5.20;47.79
45129;BME280;35512;56.312;101.728;2023-05-18T11:01:06;96184.88;;;5.04;48.74
45129;BME280;35512;56.312;101.728;2023-05-18T11:03:39;96194.22;;;4.86;48.93
45129;BME280;35512;56.312;101.728;2023-05-18T11:06:12;96196.03;;;4.61;49.66
45129;BME280;35512;56.312;101.728;2023-05-18T11:08:49;96202.31;;;4.44;50.65
45129;BME280;35512;56.312;101.728;2023-05-18T11:11:22;96209.22;;;4.23;50.84
45129;BME280;35512;56.312;101.728;2023-05-18T11:13:59;96203.06;;;4.02;51.26
45129;BME280;35512;56.312;101.728;2023-05-18T11:16:32;96204.91;;;3.89;51.29
45129;BME280;35512;56.312;101.728;2023-05-18T11:19:05;96205.69;;;3.89;51.40
45129;BME280;35512;56.312;101.728;2023-05-18T11:24:30;96218.44;;;3.84;51.56
45129;BME280;35512;56.312;101.728;2023-05-18T11:27:07;96220.13;;;3.88;51.56
45129;BME280;35512;56.312;101.728;2023-05-18T11:29:42;96225.09;;;3.78;51.75
45129;BME280;35512;56.312;101.728;2023-05-18T11:32:27;96210.50;;;3.66;52.05
45129;BME280;35512;56.312;101.728;2023-05-18T11:34:59;96234.81;;;3.73;52.31
45129;BME280;35512;56.312;101.728;2023-05-18T11:43:23;96240.97;;;3.74;53.42
45129;BME280;35512;56.312;101.728;2023-05-18T11:45:53;96238.16;;;3.70;53.52
45129;BME280;35512;56.312;101.728;2023-05-18T11:48:27;96239.56;;;3.68;54.07
45129;BME280;35512;56.312;101.728;2023-05-18T11:50:59;96243.38;;;3.67;54.35
45129;BME280;35512;56.312;101.728;2023-05-18T11:53:29;96233.44;;;3.67;54.50
45129;BME280;35512;56.312;101.728;2023-05-18T11:55:58;96244.13;;;3.67;54.45
45129;BME280;35512;56.312;101.728;2023-05-18T11:58:30;96244.72;;;3.73;54.48
45129;BME280;35512;56.312;101.728;2023-05-18T12:01:01;96246.31;;;3.74;54.67
45129;BME280;35512;56.312;101.728;2023-05-18T12:03:30;96253.06;;;3.71;55.17
45129;BME280;35512;56.312;101.728;2023-05-18T12:06:01;96246.66;;;3.64;55.22
45129;BME280;35512;56.312;101.728;2023-05-18T12:08:34;96236.97;;;3.50;55.41
45129;BME280;35512;56.312;101.728;2023-05-18T12:11:04;96244.19;;;3.59;55.66
45129;BME280;35512;56.312;101.728;2023-05-18T12:13:34;96250.91;;;3.65;55.89
45129;BME280;35512;56.312;101.728;2023-05-18T12:16:04;96256.72;;;3.58;55.83
45129;BME280;35512;56.312;101.728;2023-05-18T12:18:37;96264.47;;;3.51;56.31
45129;BME280;35512;56.312;101.728;2023-05-18T12:21:07;96267.75;;;3.57;56.48
45129;BME280;35512;56.312;101.728;2023-05-18T12:23:36;96270.69;;;3.64;56.93
45129;BME280;35512;56.312;101.728;2023-05-18T12:26:06;96262.06;;;3.58;57.04
45129;BME280;35512;56.312;101.728;2023-05-18T12:28:35;96270.59;;;3.51;56.87
45129;BME280;35512;56.312;101.728;2023-05-18T12:31:04;96275.47;;;3.49;57.72
45129;BME280;35512;56.312;101.728;2023-05-18T12:33:36;96284.09;;;3.55;58.17
45129;BME280;35512;56.312;101.728;2023-05-18T12:36:09;96270.09;;;3.58;59.24
45129;BME280;35512;56.312;101.728;2023-05-18T12:38:39;96270.72;;;3.55;60.40
45129;BME280;35512;56.312;101.728;2023-05-18T12:41:08;96270.75;;;3.46;61.00
45129;BME280;35512;56.312;101.728;2023-05-18T12:43:37;96272.03;;;3.40;61.74
45129;BME280;35512;56.312;101.728;2023-05-18T12:46:05;96281.25;;;3.51;62.41
45129;BME280;35512;56.312;101.728;2023-05-18T12:48:43;96286.59;;;3.51;62.83
45129;BME280;35512;56.312;101.728;2023-05-18T12:51:18;96289.44;;;3.46;63.21
45129;BME280;35512;56.312;101.728;2023-05-18T12:53:50;96290.09;;;3.43;63.87
45129;BME280;35512;56.312;101.728;2023-05-18T12:56:19;96273.47;;;3.37;63.86
45129;BME280;35512;56.312;101.728;2023-05-18T12:58:58;96302.03;;;3.37;64.90
45129;BME280;35512;56.312;101.728;2023-05-18T13:01:29;96305.34;;;3.34;65.05
45129;BME280;35512;56.312;101.728;2023-05-18T13:03:59;96308.16;;;3.37;65.94
45129;BME280;35512;56.312;101.728;2023-05-18T13:06:28;96310.50;;;3.39;65.91
45129;BME280;35512;56.312;101.728;2023-05-18T13:08:57;96314.16;;;3.34;65.78
45129;BME280;35512;56.312;101.728;2023-05-18T13:11:25;96313.22;;;3.30;66.57
45129;BME280;35512;56.312;101.728;2023-05-18T13:14:07;96323.84;;;3.39;66.70
45129;BME280;35512;56.312;101.728;2023-05-18T13:16:41;96328.09;;;3.40;66.69
45129;BME280;35512;56.312;101.728;2023-05-18T13:19:15;96321.22;;;3.30;67.04
45129;BME280;35512;56.312;101.728;2023-05-18T13:21:54;96347.56;;;3.41;67.35
45129;BME280;35512;56.312;101.728;2023-05-18T13:24:24;96347.44;;;3.37;66.97